sensor_id;sensor_type;location;lat;lon;timestamp;temperature;humidity
33460;DHT22;19795;53.160;6.612;2023-06-10T00:00:49;15.50;99.90
33460;DHT22;19795;53.160;6.612;2023-06-10T00:03:19;15.60;99.90
33460;DHT22;19795;53.160;6.612;2023-06-10T00:05:48;15.60;99.90
33460;DHT22;19795;53.160;6.612;2023-06-10T00:08:20;15.50;99.90
33460;DHT22;19795;53.160;6.612;2023-06-10T00:10:48;15.40;99.90
33460;DHT22;19795;53.160;6.612;2023-06-10T00:13:24;15.40;99.90
33460;DHT22;19795;53.160;6.612;2023-06-10T00:15:51;15.40;99.90
33460;DHT22;19795;53.160;6.612;2023-06-10T00:18:25;15.40;99.90
33460;DHT22;19795;53.160;6.612;2023-06-10T00:21:03;15.50;99.90
33460;DHT22;19795;53.160;6.612;2023-06-10T00:23:30;15.10;99.90
33460;DHT22;19795;53.160;6.612;2023-06-10T00:26:03;15.20;99.90
33460;DHT22;19795;53.160;6.612;2023-06-10T00:28:37;15.20;99.90
33460;DHT22;19795;53.160;6.612;2023-06-10T00:31:03;15.20;99.90
33460;DHT22;19795;53.160;6.612;2023-06-10T00:33:37;15.20;99.90
33460;DHT22;19795;53.160;6.612;2023-06-10T00:36:03;15.10;99.90
33460;DHT22;19795;53.160;6.612;2023-06-10T00:38:32;15.00;99.90
33460;DHT22;19795;53.160;6.612;2023-06-10T00:40:59;14.90;99.90
33460;DHT22;19795;53.160;6.612;2023-06-10T00:43:37;14.80;99.90
33460;DHT22;19795;53.160;6.612;2023-06-10T00:46:10;14.80;99.90
33460;DHT22;19795;53.160;6.612;2023-06-10T00:48:38;14.80;99.90
33460;DHT22;19795;53.160;6.612;2023-06-10T00:51:05;14.80;99.90
33460;DHT22;19795;53.160;6.612;2023-06-10T00:53:36;14.60;99.90
33460;DHT22;19795;53.160;6.612;2023-06-10T00:56:14;14.60;99.90
33460;DHT22;19795;53.160;6.612;2023-06-10T00:58:42;14.70;99.90
33460;DHT22;19795;53.160;6.612;2023-06-10T01:01:09;14.70;99.90
33460;DHT22;19795;53.160;6.612;2023-06-10T01:03:43;14.60;99.90
33460;DHT22;19795;53.160;6.612;2023-06-10T01:06:54;14.50;99.90
33460;DHT22;19795;53.160;6.612;2023-06-10T01:09:50;14.40;99.90
33460;DHT22;19795;53.160;6.612;2023-06-10T01:12:50;14.30;99.90
33460;DHT22;19795;53.160;6.612;2023-06-10T01:15:22;14.20;99.90
33460;DHT22;19795;53.160;6.612;2023-06-10T01:18:01;14.10;99.90
33460;DHT22;19795;53.160;6.612;2023-06-10T01:20:30;14.00;99.90
33460;DHT22;19795;53.160;6.612;2023-06-10T01:23:03;13.90;99.90
33460;DHT22;19795;53.160;6.612;2023-06-10T01:25:29;13.90;99.90
33460;DHT22;19795;53.160;6.612;2023-06-10T01:28:25;13.90;99.90
33460;DHT22;19795;53.160;6.612;2023-06-10T01:31:17;13.90;99.90
33460;DHT22;19795;53.160;6.612;2023-06-10T01:34:00;13.80;99.90
33460;DHT22;19795;53.160;6.612;2023-06-10T01:36:28;13.90;99.90
33460;DHT22;19795;53.160;6.612;2023-06-10T01:39:02;13.90;99.90
33460;DHT22;19795;53.160;6.612;2023-06-10T01:41:41;13.90;99.90
33460;DHT22;19795;53.160;6.612;2023-06-10T01:44:11;13.90;99.90
33460;DHT22;19795;53.160;6.612;2023-06-10T01:46:46;13.80;99.90
33460;DHT22;19795;53.160;6.612;2023-06-10T01:49:13;13.80;99.90
33460;DHT22;19795;53.160;6.612;2023-06-10T01:51:40;13.90;99.90
33460;DHT22;19795;53.160;6.612;2023-06-10T01:54:07;13.80;99.90
33460;DHT22;19795;53.160;6.612;2023-06-10T01:56:35;13.80;99.90
33460;DHT22;19795;53.160;6.612;2023-06-10T01:59:02;13.90;99.90
33460;DHT22;19795;53.160;6.612;2023-06-10T02:01:48;13.80;99.90
33460;DHT22;19795;53.160;6.612;2023-06-10T02:04:16;13.70;99.90
33460;DHT22;19795;53.160;6.612;2023-06-10T02:06:43;13.70;99.90
33460;DHT22;19795;53.160;6.612;2023-06-10T02:09:10;13.60;99.90
33460;DHT22;19795;53.160;6.612;2023-06-10T02:11:36;13.60;99.90
33460;DHT22;19795;53.160;6.612;2023-06-10T02:14:02;13.50;99.90
33460;DHT22;19795;53.160;6.612;2023-06-10T02:16:28;13.40;99.90
33460;DHT22;19795;53.160;6.612;2023-06-10T02:18:54;13.20;99.90
33460;DHT22;19795;53.160;6.612;2023-06-10T02:21:21;13.20;99.90
33460;DHT22;19795;53.160;6.612;2023-06-10T02:23:49;13.30;99.90
33460;DHT22;19795;53.160;6.612;2023-06-10T02:26:17;13.20;99.90
33460;DHT22;19795;53.160;6.612;2023-06-10T02:28:44;13.30;99.90
33460;DHT22;19795;53.160;6.612;2023-06-10T02:31:11;13.30;99.90
33460;DHT22;19795;53.160;6.612;2023-06-10T02:33:38;13.30;99.90
33460;DHT22;19795;53.160;6.612;2023-06-10T02:36:06;13.20;99.90
33460;DHT22;19795;53.160;6.612;2023-06-10T02:38:33;13.10;99.90
33460;DHT22;19795;53.160;6.612;2023-06-10T02:40:59;13.20;99.90
33460;DHT22;19795;53.160;6.612;2023-06-10T02:43:24;13.20;99.90
33460;DHT22;19795;53.160;6.612;2023-06-10T02:45:51;13.20;99.90
33460;DHT22;19795;53.160;6.612;2023-06-10T02:48:17;13.10;99.90
33460;DHT22;19795;53.160;6.612;2023-06-10T02:50:50;13.10;99.90
33460;DHT22;19795;53.160;6.612;2023-06-10T02:53:23;13.10;99.90
33460;DHT22;19795;53.160;6.612;2023-06-10T02:55:48;13.20;99.90
33460;DHT22;19795;53.160;6.612;2023-06-10T02:58:14;13.20;99.90
33460;DHT22;19795;53.160;6.612;2023-06-10T03:00:40;13.20;99.90
33460;DHT22;19795;53.160;6.612;2023-06-10T03:03:25;13.20;99.90
33460;DHT22;19795;53.160;6.612;2023-06-10T03:05:53;13.10;99.90
33460;DHT22;19795;53.160;6.612;2023-06-10T03:08:25;13.20;99.90
33460;DHT22;19795;53.160;6.612;2023-06-10T03:10:52;13.10;99.90
33460;DHT22;19795;53.160;6.612;2023-06-10T03:13:50;13.00;99.90
33460;DHT22;19795;53.160;6.612;2023-06-10T03:16:16;13.10;99.90
33460;DHT22;19795;53.160;6.612;2023-06-10T03:18:41;13.10;99.90
33460;DHT22;19795;53.160;6.612;2023-06-10T03:21:07;13.10;99.90
33460;DHT22;19795;53.160;6.612;2023-06-10T03:23:34;13.10;99.90
33460;DHT22;19795;53.160;6.612;2023-06-10T03:26:00;13.10;99.90
33460;DHT22;19795;53.160;6.612;2023-06-10T03:28:26;13.10;99.90
33460;DHT22;19795;53.160;6.612;2023-06-10T03:30:51;13.10;99.90
33460;DHT22;19795;53.160;6.612;2023-06-10T03:33:17;13.10;99.90
33460;DHT22;19795;53.160;6.612;2023-06-10T03:35:43;13.10;99.90
33460;DHT22;19795;53.160;6.612;2023-06-10T03:38:08;13.10;99.90
33460;DHT22;19795;53.160;6.612;2023-06-10T03:40:34;13.10;99.90
33460;DHT22;19795;53.160;6.612;2023-06-10T03:43:01;13.10;99.90
33460;DHT22;19795;53.160;6.612;2023-06-10T03:45:26;13.10;99.90
33460;DHT22;19795;53.160;6.612;2023-06-10T03:47:53;13.10;99.90
33460;DHT22;19795;53.160;6.612;2023-06-10T03:50:19;13.20;99.90
33460;DHT22;19795;53.160;6.612;2023-06-10T03:52:45;13.20;99.90
33460;DHT22;19795;53.160;6.612;2023-06-10T03:55:12;13.30;99.90
33460;DHT22;19795;53.160;6.612;2023-06-10T03:57:39;13.30;99.90
33460;DHT22;19795;53.160;6.612;2023-06-10T04:00:05;13.50;99.90
33460;DHT22;19795;53.160;6.612;2023-06-10T04:02:37;13.90;99.90
33460;DHT22;19795;53.160;6.612;2023-06-10T04:05:03;14.30;99.90
33460;DHT22;19795;53.160;6.612;2023-06-10T04:07:28;14.60;99.90
33460;DHT22;19795;53.160;6.612;2023-06-10T04:09:56;14.70;99.90
33460;DHT22;19795;53.160;6.612;2023-06-10T04:12:21;14.60;99.90
33460;DHT22;19795;53.160;6.612;2023-06-10T04:14:47;14.50;99.90
33460;DHT22;19795;53.160;6.612;2023-06-10T04:17:13;14.60;99.90
33460;DHT22;19795;53.160;6.612;2023-06-10T04:19:38;14.70;99.90
33460;DHT22;19795;53.160;6.612;2023-06-10T04:22:04;14.90;99.90
33460;DHT22;19795;53.160;6.612;2023-06-10T04:24:30;14.90;99.90
33460;DHT22;19795;53.160;6.612;2023-06-10T04:26:56;14.60;99.90
33460;DHT22;19795;53.160;6.612;2023-06-10T04:29:22;14.40;99.90
33460;DHT22;19795;53.160;6.612;2023-06-10T04:31:47;14.10;99.90
33460;DHT22;19795;53.160;6.612;2023-06-10T04:34:14;14.00;99.90
33460;DHT22;19795;53.160;6.612;2023-06-10T04:36:39;13.90;99.90
33460;DHT22;19795;53.160;6.612;2023-06-10T04:39:05;13.90;99.90
33460;DHT22;19795;53.160;6.612;2023-06-10T04:41:31;13.90;99.90
33460;DHT22;19795;53.160;6.612;2023-06-10T04:43:57;13.90;99.90
33460;DHT22;19795;53.160;6.612;2023-06-10T04:46:23;13.90;99.90
33460;DHT22;19795;53.160;6.612;2023-06-10T04:48:49;13.90;99.90
33460;DHT22;19795;53.160;6.612;2023-06-10T04:51:15;13.90;99.90
33460;DHT22;19795;53.160;6.612;2023-06-10T04:53:42;13.90;99.90
33460;DHT22;19795;53.160;6.612;2023-06-10T04:56:08;14.00;99.90
33460;DHT22;19795;53.160;6.612;2023-06-10T04:58:33;13.90;99.90
33460;DHT22;19795;53.160;6.612;2023-06-10T05:00:59;14.10;99.90
33460;DHT22;19795;53.160;6.612;2023-06-10T05:03:26;14.20;99.90
33460;DHT22;19795;53.160;6.612;2023-06-10T05:05:51;14.20;99.90
33460;DHT22;19795;53.160;6.612;2023-06-10T05:08:18;14.30;99.90
33460;DHT22;19795;53.160;6.612;2023-06-10T05:10:43;14.60;99.90
33460;DHT22;19795;53.160;6.612;2023-06-10T05:13:09;15.30;99.90
33460;DHT22;19795;53.160;6.612;2023-06-10T05:15:35;16.20;99.90
33460;DHT22;19795;53.160;6.612;2023-06-10T05:18:00;16.80;99.90
33460;DHT22;19795;53.160;6.612;2023-06-10T05:20:28;17.00;99.90
33460;DHT22;19795;53.160;6.612;2023-06-10T05:22:54;17.00;99.90
33460;DHT22;19795;53.160;6.612;2023-06-10T05:25:20;17.20;99.90
33460;DHT22;19795;53.160;6.612;2023-06-10T05:27:46;17.50;99.90
33460;DHT22;19795;53.160;6.612;2023-06-10T05:30:12;17.40;99.90
33460;DHT22;19795;53.160;6.612;2023-06-10T05:32:38;17.50;99.90
33460;DHT22;19795;53.160;6.612;2023-06-10T05:41:46;18.10;99.90
33460;DHT22;19795;53.160;6.612;2023-06-10T05:48:01;18.00;99.90
33460;DHT22;19795;53.160;6.612;2023-06-10T05:50:28;18.40;99.90
33460;DHT22;19795;53.160;6.612;2023-06-10T05:52:54;18.90;99.90
33460;DHT22;19795;53.160;6.612;2023-06-10T05:55:29;18.90;99.90
33460;DHT22;19795;53.160;6.612;2023-06-10T05:58:00;19.10;99.90
33460;DHT22;19795;53.160;6.612;2023-06-10T06:04:10;19.10;99.90
33460;DHT22;19795;53.160;6.612;2023-06-10T06:06:38;18.30;99.90
33460;DHT22;19795;53.160;6.612;2023-06-10T06:09:30;18.70;99.90
33460;DHT22;19795;53.160;6.612;2023-06-10T06:12:05;18.70;99.90
33460;DHT22;19795;53.160;6.612;2023-06-10T06:14:33;19.10;99.90
33460;DHT22;19795;53.160;6.612;2023-06-10T06:17:02;18.80;99.90
33460;DHT22;19795;53.160;6.612;2023-06-10T06:19:35;18.80;99.90
33460;DHT22;19795;53.160;6.612;2023-06-10T06:22:08;19.30;99.90
33460;DHT22;19795;53.160;6.612;2023-06-10T06:24:33;19.60;99.90
33460;DHT22;19795;53.160;6.612;2023-06-10T06:26:59;20.00;99.90
33460;DHT22;19795;53.160;6.612;2023-06-10T06:29:25;20.30;99.90
33460;DHT22;19795;53.160;6.612;2023-06-10T06:31:50;20.60;99.90
33460;DHT22;19795;53.160;6.612;2023-06-10T06:38:09;21.30;99.90
33460;DHT22;19795;53.160;6.612;2023-06-10T06:44:11;20.90;99.90
33460;DHT22;19795;53.160;6.612;2023-06-10T06:46:56;21.40;99.90
33460;DHT22;19795;53.160;6.612;2023-06-10T06:50:01;22.60;99.90
33460;DHT22;19795;53.160;6.612;2023-06-10T06:52:27;22.90;99.90
33460;DHT22;19795;53.160;6.612;2023-06-10T06:54:57;21.60;99.90
33460;DHT22;19795;53.160;6.612;2023-06-10T06:57:23;21.90;99.90
33460;DHT22;19795;53.160;6.612;2023-06-10T06:59:55;22.40;99.90
33460;DHT22;19795;53.160;6.612;2023-06-10T07:12:34;21.70;99.90
33460;DHT22;19795;53.160;6.612;2023-06-10T07:28:37;22.10;99.90
33460;DHT22;19795;53.160;6.612;2023-06-10T07:31:23;22.00;99.90
33460;DHT22;19795;53.160;6.612;2023-06-10T07:36:55;22.50;99.90
33460;DHT22;19795;53.160;6.612;2023-06-10T08:50:46;24.10;99.90
33460;DHT22;19795;53.160;6.612;2023-06-10T08:53:18;23.20;99.90
33460;DHT22;19795;53.160;6.612;2023-06-10T08:55:52;23.40;99.90
33460;DHT22;19795;53.160;6.612;2023-06-10T08:58:39;24.10;99.90
33460;DHT22;19795;53.160;6.612;2023-06-10T09:26:10;24.60;99.90
33460;DHT22;19795;53.160;6.612;2023-06-10T09:32:25;24.60;99.90
33460;DHT22;19795;53.160;6.612;2023-06-10T09:38:22;25.10;99.90
33460;DHT22;19795;53.160;6.612;2023-06-10T09:44:37;25.00;99.90
33460;DHT22;19795;53.160;6.612;2023-06-10T09:47:42;24.80;99.90
33460;DHT22;19795;53.160;6.612;2023-06-10T09:50:23;25.70;99.90
33460;DHT22;19795;53.160;6.612;2023-06-10T09:59:56;26.00;99.90
33460;DHT22;19795;53.160;6.612;2023-06-10T10:02:47;25.50;99.90
33460;DHT22;19795;53.160;6.612;2023-06-10T10:15:57;25.90;99.90
33460;DHT22;19795;53.160;6.612;2023-06-10T10:18:29;26.10;99.40
33460;DHT22;19795;53.160;6.612;2023-06-10T10:21:05;25.60;99.30
33460;DHT22;19795;53.160;6.612;2023-06-10T10:29:47;25.80;98.90
33460;DHT22;19795;53.160;6.612;2023-06-10T10:32:14;26.40;98.30
33460;DHT22;19795;53.160;6.612;2023-06-10T10:37:59;26.50;97.90
33460;DHT22;19795;53.160;6.612;2023-06-10T10:40:31;26.10;98.60
33460;DHT22;19795;53.160;6.612;2023-06-10T10:42:59;26.90;97.90
33460;DHT22;19795;53.160;6.612;2023-06-10T10:45:27;26.70;97.10
33460;DHT22;19795;53.160;6.612;2023-06-10T10:47:54;26.50;97.80
33460;DHT22;19795;53.160;6.612;2023-06-10T10:50:22;27.10;97.50
33460;DHT22;19795;53.160;6.612;2023-06-10T10:52:53;27.20;96.30
33460;DHT22;19795;53.160;6.612;2023-06-10T10:55:20;27.10;98.10
33460;DHT22;19795;53.160;6.612;2023-06-10T11:00:45;26.90;97.40
33460;DHT22;19795;53.160;6.612;2023-06-10T11:03:15;27.10;97.50
33460;DHT22;19795;53.160;6.612;2023-06-10T11:05:48;28.00;96.80
33460;DHT22;19795;53.160;6.612;2023-06-10T11:11:00;27.10;95.10
33460;DHT22;19795;53.160;6.612;2023-06-10T11:13:27;27.30;95.50
33460;DHT22;19795;53.160;6.612;2023-06-10T11:15:57;27.00;96.40
33460;DHT22;19795;53.160;6.612;2023-06-10T11:18:28;27.00;96.10
33460;DHT22;19795;53.160;6.612;2023-06-10T11:21:01;27.10;95.20
33460;DHT22;19795;53.160;6.612;2023-06-10T11:26:12;27.40;95.20
33460;DHT22;19795;53.160;6.612;2023-06-10T11:31:40;26.90;94.20
33460;DHT22;19795;53.160;6.612;2023-06-10T11:34:07;26.80;94.10
33460;DHT22;19795;53.160;6.612;2023-06-10T11:36:41;26.90;94.50
33460;DHT22;19795;53.160;6.612;2023-06-10T11:39:08;27.50;94.20
33460;DHT22;19795;53.160;6.612;2023-06-10T11:41:36;27.90;93.30
33460;DHT22;19795;53.160;6.612;2023-06-10T11:44:08;27.70;92.60
33460;DHT22;19795;53.160;6.612;2023-06-10T11:46:35;27.80;93.20
33460;DHT22;19795;53.160;6.612;2023-06-10T11:49:01;27.50;93.90
33460;DHT22;19795;53.160;6.612;2023-06-10T11:51:39;28.40;94.00
33460;DHT22;19795;53.160;6.612;2023-06-10T11:54:08;29.00;92.80
33460;DHT22;19795;53.160;6.612;2023-06-10T11:56:38;29.30;93.20
33460;DHT22;19795;53.160;6.612;2023-06-10T11:59:05;28.30;94.50
33460;DHT22;19795;53.160;6.612;2023-06-10T12:01:37;28.20;93.80
33460;DHT22;19795;53.160;6.612;2023-06-10T12:04:07;28.20;92.80
33460;DHT22;19795;53.160;6.612;2023-06-10T12:06:46;27.90;93.30
33460;DHT22;19795;53.160;6.612;2023-06-10T12:09:18;27.40;93.60
33460;DHT22;19795;53.160;6.612;2023-06-10T12:11:45;27.70;94.20
33460;DHT22;19795;53.160;6.612;2023-06-10T12:14:10;28.40;93.30
33460;DHT22;19795;53.160;6.612;2023-06-10T12:16:36;28.30;93.00
33460;DHT22;19795;53.160;6.612;2023-06-10T12:19:03;28.70;93.20
33460;DHT22;19795;53.160;6.612;2023-06-10T12:21:30;28.80;93.30
33460;DHT22;19795;53.160;6.612;2023-06-10T12:26:40;28.30;93.30
33460;DHT22;19795;53.160;6.612;2023-06-10T12:29:19;28.10;93.40
33460;DHT22;19795;53.160;6.612;2023-06-10T12:32:03;28.70;93.00
33460;DHT22;19795;53.160;6.612;2023-06-10T12:34:38;28.50;93.50
33460;DHT22;19795;53.160;6.612;2023-06-10T12:37:06;29.20;92.70
33460;DHT22;19795;53.160;6.612;2023-06-10T12:39:38;28.40;93.00
33460;DHT22;19795;53.160;6.612;2023-06-10T12:42:04;28.70;92.70
33460;DHT22;19795;53.160;6.612;2023-06-10T12:44:35;29.00;92.40
33460;DHT22;19795;53.160;6.612;2023-06-10T12:47:07;28.40;93.20
33460;DHT22;19795;53.160;6.612;2023-06-10T12:49:34;27.80;93.50
33460;DHT22;19795;53.160;6.612;2023-06-10T12:52:00;28.40;92.00
33460;DHT22;19795;53.160;6.612;2023-06-10T12:54:29;28.10;92.60
33460;DHT22;19795;53.160;6.612;2023-06-10T12:56:55;28.50;92.90
33460;DHT22;19795;53.160;6.612;2023-06-10T12:59:20;29.30;93.00
33460;DHT22;19795;53.160;6.612;2023-06-10T13:01:53;29.30;92.20
33460;DHT22;19795;53.160;6.612;2023-06-10T13:04:18;29.60;91.70
33460;DHT22;19795;53.160;6.612;2023-06-10T13:06:45;29.60;92.00
33460;DHT22;19795;53.160;6.612;2023-06-10T13:09:12;29.10;91.20
33460;DHT22;19795;53.160;6.612;2023-06-10T13:11:38;29.00;91.30
33460;DHT22;19795;53.160;6.612;2023-06-10T13:14:38;29.30;91.10
33460;DHT22;19795;53.160;6.612;2023-06-10T13:17:05;28.40;91.90
33460;DHT22;19795;53.160;6.612;2023-06-10T13:19:33;28.40;91.70
33460;DHT22;19795;53.160;6.612;2023-06-10T13:21:59;28.80;92.10
33460;DHT22;19795;53.160;6.612;2023-06-10T13:24:25;28.60;91.20
33460;DHT22;19795;53.160;6.612;2023-06-10T13:26:51;28.60;90.80
33460;DHT22;19795;53.160;6.612;2023-06-10T13:29:17;28.80;91.00
33460;DHT22;19795;53.160;6.612;2023-06-10T13:31:43;28.60;90.90
33460;DHT22;19795;53.160;6.612;2023-06-10T13:34:09;28.90;88.30
33460;DHT22;19795;53.160;6.612;2023-06-10T13:36:35;28.70;90.50
33460;DHT22;19795;53.160;6.612;2023-06-10T13:39:03;28.60;90.00
33460;DHT22;19795;53.160;6.612;2023-06-10T13:41:29;28.40;88.60
33460;DHT22;19795;53.160;6.612;2023-06-10T13:43:55;28.10;90.80
33460;DHT22;19795;53.160;6.612;2023-06-10T13:46:21;28.30;90.00
33460;DHT22;19795;53.160;6.612;2023-06-10T13:48:47;29.00;89.00
33460;DHT22;19795;53.160;6.612;2023-06-10T13:51:13;29.40;88.90
33460;DHT22;19795;53.160;6.612;2023-06-10T13:53:39;29.30;88.60
33460;DHT22;19795;53.160;6.612;2023-06-10T13:56:04;28.90;88.00
33460;DHT22;19795;53.160;6.612;2023-06-10T13:58:30;28.80;87.40
33460;DHT22;19795;53.160;6.612;2023-06-10T14:00:56;28.50;88.50
33460;DHT22;19795;53.160;6.612;2023-06-10T14:03:23;28.80;87.60
33460;DHT22;19795;53.160;6.612;2023-06-10T14:05:49;29.70;86.40
33460;DHT22;19795;53.160;6.612;2023-06-10T14:08:15;29.90;84.60
33460;DHT22;19795;53.160;6.612;2023-06-10T14:10:41;30.20;84.70
33460;DHT22;19795;53.160;6.612;2023-06-10T14:13:07;30.40;85.50
33460;DHT22;19795;53.160;6.612;2023-06-10T14:15:33;30.40;86.90
33460;DHT22;19795;53.160;6.612;2023-06-10T14:17:58;30.10;87.50
33460;DHT22;19795;53.160;6.612;2023-06-10T14:20:24;29.60;87.80
33460;DHT22;19795;53.160;6.612;2023-06-10T14:22:58;29.90;87.90
33460;DHT22;19795;53.160;6.612;2023-06-10T14:25:24;30.50;87.30
33460;DHT22;19795;53.160;6.612;2023-06-10T14:27:50;29.90;88.20
33460;DHT22;19795;53.160;6.612;2023-06-10T14:30:16;29.50;88.90
33460;DHT22;19795;53.160;6.612;2023-06-10T14:32:42;29.50;89.10
33460;DHT22;19795;53.160;6.612;2023-06-10T14:35:08;29.50;89.60
33460;DHT22;19795;53.160;6.612;2023-06-10T14:37:34;29.80;90.60
33460;DHT22;19795;53.160;6.612;2023-06-10T14:40:00;29.40;89.80
33460;DHT22;19795;53.160;6.612;2023-06-10T14:42:26;29.50;88.60
33460;DHT22;19795;53.160;6.612;2023-06-10T14:44:51;29.70;88.20
33460;DHT22;19795;53.160;6.612;2023-06-10T14:47:17;29.60;90.20
33460;DHT22;19795;53.160;6.612;2023-06-10T14:49:42;29.70;88.70
33460;DHT22;19795;53.160;6.612;2023-06-10T14:52:09;28.90;90.60
33460;DHT22;19795;53.160;6.612;2023-06-10T14:54:35;28.60;90.40
33460;DHT22;19795;53.160;6.612;2023-06-10T14:57:01;28.70;87.70
33460;DHT22;19795;53.160;6.612;2023-06-10T14:59:26;28.60;86.40
33460;DHT22;19795;53.160;6.612;2023-06-10T15:01:52;28.10;86.30
33460;DHT22;19795;53.160;6.612;2023-06-10T15:04:18;27.40;90.60
33460;DHT22;19795;53.160;6.612;2023-06-10T15:06:44;27.10;90.90
33460;DHT22;19795;53.160;6.612;2023-06-10T15:09:10;26.70;90.80
33460;DHT22;19795;53.160;6.612;2023-06-10T15:11:36;26.50;90.00
33460;DHT22;19795;53.160;6.612;2023-06-10T15:14:04;26.60;91.80
33460;DHT22;19795;53.160;6.612;2023-06-10T15:16:31;26.90;91.40
33460;DHT22;19795;53.160;6.612;2023-06-10T15:18:57;27.00;91.40
33460;DHT22;19795;53.160;6.612;2023-06-10T15:21:23;27.00;91.40
33460;DHT22;19795;53.160;6.612;2023-06-10T15:23:48;26.60;91.20
33460;DHT22;19795;53.160;6.612;2023-06-10T15:26:14;26.60;91.70
33460;DHT22;19795;53.160;6.612;2023-06-10T15:28:40;26.30;91.70
33460;DHT22;19795;53.160;6.612;2023-06-10T15:31:06;26.10;92.00
33460;DHT22;19795;53.160;6.612;2023-06-10T15:33:33;26.70;92.30
33460;DHT22;19795;53.160;6.612;2023-06-10T15:35:58;27.00;91.30
33460;DHT22;19795;53.160;6.612;2023-06-10T15:38:24;27.10;91.20
33460;DHT22;19795;53.160;6.612;2023-06-10T15:40:50;27.00;91.30
33460;DHT22;19795;53.160;6.612;2023-06-10T15:43:15;26.80;91.00
33460;DHT22;19795;53.160;6.612;2023-06-10T15:45:41;26.50;91.10
33460;DHT22;19795;53.160;6.612;2023-06-10T15:48:07;26.80;90.90
33460;DHT22;19795;53.160;6.612;2023-06-10T15:50:33;26.60;91.30
33460;DHT22;19795;53.160;6.612;2023-06-10T15:52:58;26.50;91.20
33460;DHT22;19795;53.160;6.612;2023-06-10T15:55:24;26.30;91.30
33460;DHT22;19795;53.160;6.612;2023-06-10T15:57:51;26.50;91.50
33460;DHT22;19795;53.160;6.612;2023-06-10T16:00:17;26.30;91.20
33460;DHT22;19795;53.160;6.612;2023-06-10T16:02:43;26.30;90.80
33460;DHT22;19795;53.160;6.612;2023-06-10T16:05:11;26.30;90.70
33460;DHT22;19795;53.160;6.612;2023-06-10T16:07:37;26.90;90.20
33460;DHT22;19795;53.160;6.612;2023-06-10T16:10:03;27.50;89.60
33460;DHT22;19795;53.160;6.612;2023-06-10T16:12:28;27.10;89.80
33460;DHT22;19795;53.160;6.612;2023-06-10T16:14:54;27.00;90.30
33460;DHT22;19795;53.160;6.612;2023-06-10T16:17:20;27.00;90.60
33460;DHT22;19795;53.160;6.612;2023-06-10T16:19:46;26.70;90.90
33460;DHT22;19795;53.160;6.612;2023-06-10T16:22:12;26.50;90.60
33460;DHT22;19795;53.160;6.612;2023-06-10T16:24:37;26.80;90.60
33460;DHT22;19795;53.160;6.612;2023-06-10T16:27:03;27.30;90.30
33460;DHT22;19795;53.160;6.612;2023-06-10T16:29:32;27.30;90.40
33460;DHT22;19795;53.160;6.612;2023-06-10T16:31:57;27.70;90.10
33460;DHT22;19795;53.160;6.612;2023-06-10T16:34:23;28.70;87.90
33460;DHT22;19795;53.160;6.612;2023-06-10T16:36:49;28.70;86.50
33460;DHT22;19795;53.160;6.612;2023-06-10T16:39:15;28.30;88.40
33460;DHT22;19795;53.160;6.612;2023-06-10T16:41:40;27.60;89.90
33460;DHT22;19795;53.160;6.612;2023-06-10T16:44:06;27.30;90.40
33460;DHT22;19795;53.160;6.612;2023-06-10T16:46:31;27.30;90.70
33460;DHT22;19795;53.160;6.612;2023-06-10T16:48:57;27.30;89.80
33460;DHT22;19795;53.160;6.612;2023-06-10T16:51:23;27.80;87.90
33460;DHT22;19795;53.160;6.612;2023-06-10T16:53:48;27.80;86.80
33460;DHT22;19795;53.160;6.612;2023-06-10T16:56:14;28.40;88.00
33460;DHT22;19795;53.160;6.612;2023-06-10T16:58:39;29.10;86.10
33460;DHT22;19795;53.160;6.612;2023-06-10T17:01:08;29.00;86.30
33460;DHT22;19795;53.160;6.612;2023-06-10T17:03:33;29.20;84.00
33460;DHT22;19795;53.160;6.612;2023-06-10T17:06:00;29.80;83.80
33460;DHT22;19795;53.160;6.612;2023-06-10T17:08:25;29.00;83.60
33460;DHT22;19795;53.160;6.612;2023-06-10T17:10:51;29.10;83.30
33460;DHT22;19795;53.160;6.612;2023-06-10T17:16:29;29.70;82.90
33460;DHT22;19795;53.160;6.612;2023-06-10T17:18:56;30.30;81.90
33460;DHT22;19795;53.160;6.612;2023-06-10T17:21:22;30.10;81.80
33460;DHT22;19795;53.160;6.612;2023-06-10T17:23:48;30.50;80.90
33460;DHT22;19795;53.160;6.612;2023-06-10T17:26:13;30.40;80.70
33460;DHT22;19795;53.160;6.612;2023-06-10T17:28:40;29.90;80.40
33460;DHT22;19795;53.160;6.612;2023-06-10T17:31:05;30.00;83.70
33460;DHT22;19795;53.160;6.612;2023-06-10T17:33:31;29.30;87.80
33460;DHT22;19795;53.160;6.612;2023-06-10T17:35:56;29.10;88.80
33460;DHT22;19795;53.160;6.612;2023-06-10T17:38:22;28.60;89.20
33460;DHT22;19795;53.160;6.612;2023-06-10T17:40:48;28.80;90.00
33460;DHT22;19795;53.160;6.612;2023-06-10T17:43:14;28.80;90.10
33460;DHT22;19795;53.160;6.612;2023-06-10T17:45:40;28.70;90.20
33460;DHT22;19795;53.160;6.612;2023-06-10T17:48:05;28.70;90.10
33460;DHT22;19795;53.160;6.612;2023-06-10T17:50:31;28.40;90.50
33460;DHT22;19795;53.160;6.612;2023-06-10T17:52:56;28.50;90.80
33460;DHT22;19795;53.160;6.612;2023-06-10T17:55:30;28.40;92.40
33460;DHT22;19795;53.160;6.612;2023-06-10T17:57:56;27.80;93.70
33460;DHT22;19795;53.160;6.612;2023-06-10T18:00:21;27.30;94.50
33460;DHT22;19795;53.160;6.612;2023-06-10T18:02:58;27.10;95.00
33460;DHT22;19795;53.160;6.612;2023-06-10T18:05:24;26.90;95.30
33460;DHT22;19795;53.160;6.612;2023-06-10T18:07:50;26.70;95.60
33460;DHT22;19795;53.160;6.612;2023-06-10T18:10:16;26.70;96.10
33460;DHT22;19795;53.160;6.612;2023-06-10T18:12:42;26.70;96.10
33460;DHT22;19795;53.160;6.612;2023-06-10T18:15:07;26.70;96.10
33460;DHT22;19795;53.160;6.612;2023-06-10T18:17:33;26.50;96.70
33460;DHT22;19795;53.160;6.612;2023-06-10T18:20:03;26.60;96.90
33460;DHT22;19795;53.160;6.612;2023-06-10T18:22:29;26.50;97.10
33460;DHT22;19795;53.160;6.612;2023-06-10T18:24:57;26.40;97.50
33460;DHT22;19795;53.160;6.612;2023-06-10T18:27:23;26.30;98.00
33460;DHT22;19795;53.160;6.612;2023-06-10T18:30:01;26.10;98.70
33460;DHT22;19795;53.160;6.612;2023-06-10T18:32:26;26.10;99.00
33460;DHT22;19795;53.160;6.612;2023-06-10T18:34:52;26.00;99.30
33460;DHT22;19795;53.160;6.612;2023-06-10T18:37:19;25.90;99.90
33460;DHT22;19795;53.160;6.612;2023-06-10T18:39:45;25.60;99.90
33460;DHT22;19795;53.160;6.612;2023-06-10T18:42:10;25.30;99.90
33460;DHT22;19795;53.160;6.612;2023-06-10T18:44:37;25.20;99.90
33460;DHT22;19795;53.160;6.612;2023-06-10T18:47:03;25.20;99.90
33460;DHT22;19795;53.160;6.612;2023-06-10T18:49:29;25.20;99.90
33460;DHT22;19795;53.160;6.612;2023-06-10T18:51:54;24.70;99.90
33460;DHT22;19795;53.160;6.612;2023-06-10T18:54:20;23.90;99.90
33460;DHT22;19795;53.160;6.612;2023-06-10T18:56:46;23.30;99.90
33460;DHT22;19795;53.160;6.612;2023-06-10T18:59:12;22.90;99.90